createdAt,value
2022-12-11T00:00:22.836Z,83.81
2022-12-11T00:02:49.525Z,83.59
2022-12-11T00:05:16.387Z,83.58
2022-12-11T00:07:43.035Z,83.79
2022-12-11T00:10:09.966Z,83.78
2022-12-11T00:12:36.567Z,83.79
2022-12-11T00:15:05.148Z,83.60
2022-12-11T00:17:31.995Z,83.43
2022-12-11T00:19:58.563Z,83.81
2022-12-11T00:22:25.124Z,83.64
2022-12-11T00:24:51.736Z,83.71
2022-12-11T00:27:18.370Z,83.66
2022-12-11T00:29:45.005Z,84.24
2022-12-11T00:32:13.041Z,84.59
2022-12-11T00:34:39.996Z,84.00
2022-12-11T00:37:06.789Z,84.42
2022-12-11T00:39:33.488Z,84.04
2022-12-11T00:42:00.272Z,84.37
2022-12-11T00:44:26.838Z,84.17
2022-12-11T00:46:53.622Z,84.00
2022-12-11T00:49:21.795Z,84.36
2022-12-11T00:51:48.387Z,84.53
2022-12-11T00:54:14.993Z,84.37
2022-12-11T00:56:41.571Z,84.57
2022-12-11T00:59:08.259Z,84.03
2022-12-11T01:01:35.313Z,84.49
2022-12-11T01:04:01.952Z,84.32
2022-12-11T01:06:29.979Z,84.62
2022-12-11T01:08:56.833Z,83.91
2022-12-11T01:11:23.504Z,84.43
2022-12-11T01:13:50.031Z,84.44
2022-12-11T01:16:16.859Z,84.58
2022-12-11T01:18:44.343Z,84.70
2022-12-11T01:21:13.282Z,84.63
2022-12-11T01:23:41.161Z,84.28
2022-12-11T01:26:09.609Z,84.59
2022-12-11T01:28:36.437Z,84.40
2022-12-11T01:31:07.175Z,84.44
2022-12-11T01:33:33.782Z,84.17
2022-12-11T01:36:00.428Z,84.16
2022-12-11T01:38:27.065Z,83.93
2022-12-11T01:40:54.979Z,83.86
2022-12-11T01:43:21.624Z,84.40
2022-12-11T01:45:48.683Z,84.62
2022-12-11T01:48:18.872Z,84.32
2022-12-11T01:50:48.831Z,84.33
2022-12-11T01:53:19.865Z,84.50
2022-12-11T01:55:48.237Z,84.73
2022-12-11T01:58:18.215Z,84.28
2022-12-11T02:00:44.930Z,84.63
2022-12-11T02:03:11.483Z,84.52
2022-12-11T02:05:38.227Z,84.34
2022-12-11T02:08:07.175Z,84.59
2022-12-11T02:10:47.711Z,84.07
2022-12-11T02:13:21.246Z,84.54
2022-12-11T02:15:52.598Z,84.45
2022-12-11T02:18:28.890Z,84.81
2022-12-11T02:21:02.277Z,84.64
2022-12-11T02:23:45.230Z,85.08
2022-12-11T02:26:30.142Z,85.04
2022-12-11T02:29:00.984Z,84.96
2022-12-11T02:31:34.678Z,84.96
2022-12-11T02:34:04.886Z,85.21
2022-12-11T02:36:35.837Z,85.14
2022-12-11T02:39:04.812Z,84.97
2022-12-11T02:41:33.836Z,84.96
2022-12-11T02:44:04.238Z,84.95
2022-12-11T02:46:34.248Z,85.08
2022-12-11T02:49:04.468Z,85.29
2022-12-11T02:51:35.022Z,85.07
2022-12-11T02:54:02.637Z,85.21
2022-12-11T02:56:33.587Z,85.51
2022-12-11T02:59:06.850Z,85.24
2022-12-11T03:01:33.708Z,85.15
2022-12-11T03:04:00.352Z,84.69
2022-12-11T03:06:32.128Z,85.07
2022-12-11T03:08:58.721Z,85.27
2022-12-11T03:11:25.239Z,84.77
2022-12-11T03:13:53.472Z,85.00
2022-12-11T03:16:33.689Z,84.76
2022-12-11T03:19:09.132Z,85.30
2022-12-11T03:21:42.364Z,85.11
2022-12-11T03:24:12.422Z,85.36
2022-12-11T03:26:42.204Z,85.10
2022-12-11T03:29:17.844Z,85.79
2022-12-11T03:31:51.840Z,85.81
2022-12-11T03:34:23.600Z,85.46
2022-12-11T03:36:51.688Z,85.97
2022-12-11T03:39:24.816Z,85.75
2022-12-11T03:41:53.533Z,85.62
2022-12-11T03:44:21.393Z,85.70
2022-12-11T03:46:50.320Z,85.41
2022-12-11T03:49:20.254Z,85.73
2022-12-11T03:51:50.020Z,85.61
2022-12-11T03:54:17.795Z,85.69
2022-12-11T03:56:45.455Z,85.33
2022-12-11T03:59:12.521Z,85.27
2022-12-11T04:01:39.700Z,85.61
2022-12-11T04:04:07.688Z,85.85
2022-12-11T04:06:34.447Z,85.63
2022-12-11T04:09:00.980Z,85.51
2022-12-11T04:11:27.609Z,85.52
2022-12-11T04:13:54.232Z,85.33
2022-12-11T04:16:20.803Z,85.68
2022-12-11T04:18:47.927Z,85.58
2022-12-11T04:21:15.887Z,85.98
2022-12-11T04:23:42.436Z,85.76
2022-12-11T04:26:10.745Z,85.70
2022-12-11T04:28:37.641Z,86.05
2022-12-11T04:31:05.101Z,85.83
2022-12-11T04:33:31.812Z,85.54
2022-12-11T04:35:59.340Z,85.92
2022-12-11T04:38:27.361Z,86.07
2022-12-11T04:40:58.184Z,86.23
2022-12-11T04:43:24.842Z,85.72
2022-12-11T04:45:51.346Z,86.37
2022-12-11T04:48:18.105Z,86.00
2022-12-11T04:50:44.790Z,85.68
2022-12-11T04:53:11.329Z,86.12
2022-12-11T04:55:40.428Z,86.17
2022-12-11T04:58:07.068Z,85.94
2022-12-11T05:00:33.580Z,86.20
2022-12-11T05:03:00.264Z,86.36
2022-12-11T05:05:26.888Z,86.49
2022-12-11T05:07:53.577Z,86.15
2022-12-11T05:10:20.113Z,86.60
2022-12-11T05:12:48.190Z,86.43
2022-12-11T05:15:14.780Z,86.16
2022-12-11T05:17:41.377Z,86.18
2022-12-11T05:20:08.935Z,85.47
2022-12-11T05:22:35.748Z,85.61
2022-12-11T05:25:02.389Z,85.92
2022-12-11T05:27:29.050Z,86.11
2022-12-11T05:29:59.600Z,86.28
2022-12-11T05:32:26.492Z,86.48
2022-12-11T05:34:53.211Z,86.17
2022-12-11T05:37:19.785Z,86.46
2022-12-11T05:39:46.260Z,86.47
2022-12-11T05:42:12.835Z,86.20
2022-12-11T05:44:39.313Z,86.35
2022-12-11T05:47:07.269Z,86.66
2022-12-11T05:49:33.765Z,86.32
2022-12-11T05:52:00.297Z,86.22
2022-12-11T05:54:26.774Z,86.47
2022-12-11T05:56:53.442Z,85.95
2022-12-11T05:59:19.959Z,86.52
2022-12-11T06:01:46.821Z,85.83
2022-12-11T06:04:14.890Z,85.60
2022-12-11T06:06:42.175Z,86.09
2022-12-11T06:09:12.593Z,86.51
2022-12-11T06:11:39.316Z,87.10
2022-12-11T06:14:05.843Z,86.72
2022-12-11T06:16:32.865Z,87.24
2022-12-11T06:18:59.715Z,87.24
2022-12-11T06:21:29.943Z,86.94
2022-12-11T06:23:58.487Z,87.58
2022-12-11T06:26:25.937Z,87.02
2022-12-11T06:28:53.072Z,87.15
2022-12-11T06:31:20.537Z,87.20
2022-12-11T06:33:47.391Z,87.09
2022-12-11T06:36:16.927Z,87.40
2022-12-11T06:38:46.020Z,87.54
2022-12-11T06:41:12.755Z,87.41
2022-12-11T06:43:40.816Z,87.38
2022-12-11T06:46:09.554Z,87.11
2022-12-11T06:48:36.909Z,87.24
2022-12-11T06:51:06.804Z,87.43
2022-12-11T06:53:33.452Z,87.81
2022-12-11T06:56:03.773Z,86.99
2022-12-11T06:58:30.331Z,86.81
2022-12-11T07:00:56.882Z,86.91
2022-12-11T07:03:23.433Z,86.67
2022-12-11T07:05:50.022Z,87.05
2022-12-11T07:08:16.884Z,87.58
2022-12-11T07:10:43.478Z,87.98
2022-12-11T07:13:11.383Z,88.38
2022-12-11T07:15:40.527Z,88.43
2022-12-11T07:18:09.028Z,88.46
2022-12-11T07:20:35.615Z,88.79
2022-12-11T07:23:02.145Z,89.00
2022-12-11T07:25:28.736Z,88.36
2022-12-11T07:27:55.421Z,87.77
2022-12-11T07:30:23.313Z,88.14
2022-12-11T07:32:50.301Z,88.17
2022-12-11T07:35:16.945Z,88.19
2022-12-11T07:37:43.714Z,88.24
2022-12-11T07:40:11.281Z,88.33
2022-12-11T07:42:42.827Z,88.54
2022-12-11T07:45:12.938Z,88.82
2022-12-11T07:47:41.318Z,88.78
2022-12-11T07:50:08.558Z,89.05
2022-12-11T07:52:35.930Z,89.20
2022-12-11T07:55:03.449Z,89.16
2022-12-11T07:57:29.967Z,89.04
2022-12-11T07:59:56.592Z,89.13
2022-12-11T08:02:23.228Z,88.83
2022-12-11T08:04:51.579Z,88.97
2022-12-11T08:07:18.318Z,88.84
2022-12-11T08:09:44.862Z,89.03
2022-12-11T08:12:12.487Z,88.69
2022-12-11T08:14:39.124Z,88.59
2022-12-11T08:17:05.745Z,88.64
2022-12-11T08:19:32.431Z,88.61
2022-12-11T08:22:00.522Z,88.52
2022-12-11T08:24:27.836Z,88.41
2022-12-11T08:26:54.334Z,88.27
2022-12-11T08:29:20.930Z,88.45
2022-12-11T08:31:47.536Z,88.47
2022-12-11T08:34:14.183Z,88.53
2022-12-11T08:36:41.165Z,88.19
2022-12-11T08:39:10.841Z,88.25
2022-12-11T08:41:37.410Z,88.14
2022-12-11T08:44:05.976Z,88.03
2022-12-11T08:46:32.783Z,88.08
2022-12-11T08:48:59.869Z,87.72
2022-12-11T08:51:29.125Z,87.33
2022-12-11T08:53:56.857Z,87.50
2022-12-11T08:56:26.270Z,86.88
2022-12-11T08:58:53.407Z,87.07
2022-12-11T09:01:23.336Z,87.14
2022-12-11T09:03:51.289Z,86.10
2022-12-11T09:06:20.130Z,86.93
2022-12-11T09:08:52.560Z,86.62
2022-12-11T09:11:21.610Z,86.17
2022-12-11T09:13:49.746Z,86.49
2022-12-11T09:16:19.412Z,86.49
2022-12-11T09:18:47.746Z,86.84
2022-12-11T09:21:16.961Z,86.64
2022-12-11T09:23:44.146Z,85.98
2022-12-11T09:26:13.041Z,86.44
2022-12-11T09:28:44.420Z,86.74
2022-12-11T09:31:16.246Z,86.49
2022-12-11T09:33:43.278Z,86.46
2022-12-11T09:36:10.911Z,86.69
2022-12-11T09:38:38.032Z,86.91
2022-12-11T09:41:23.010Z,86.75
2022-12-11T09:43:59.126Z,86.47
2022-12-11T09:46:33.802Z,85.97
2022-12-11T09:49:02.994Z,85.74
2022-12-11T09:51:36.605Z,85.80
2022-12-11T09:54:05.076Z,84.88
2022-12-11T09:56:34.335Z,85.27
2022-12-11T09:59:09.279Z,85.55
2022-12-11T10:01:45.378Z,85.59
2022-12-11T10:04:25.814Z,85.37
2022-12-11T10:07:02.359Z,84.84
2022-12-11T10:09:39.893Z,84.80
2022-12-11T10:12:18.740Z,85.21
2022-12-11T10:14:58.947Z,84.91
2022-12-11T10:17:30.823Z,84.24
2022-12-11T10:20:00.329Z,84.28
2022-12-11T10:22:31.592Z,84.31
2022-12-11T10:25:16.294Z,84.55
2022-12-11T10:27:43.109Z,84.32
2022-12-11T10:30:16.235Z,84.18
2022-12-11T10:32:51.308Z,83.87
2022-12-11T10:35:29.698Z,82.65
2022-12-11T10:38:02.456Z,83.09
2022-12-11T10:40:30.685Z,82.87
2022-12-11T10:42:57.227Z,82.98
2022-12-11T10:45:24.510Z,82.64
2022-12-11T10:48:02.365Z,82.65
2022-12-11T10:50:29.080Z,81.50
2022-12-11T10:52:55.813Z,82.17
2022-12-11T10:55:25.967Z,81.56
2022-12-11T10:57:58.673Z,80.63
2022-12-11T11:00:35.491Z,80.44
2022-12-11T11:03:04.651Z,80.84
2022-12-11T11:05:33.524Z,80.17
2022-12-11T11:08:10.860Z,81.05
2022-12-11T11:10:37.582Z,81.24
2022-12-11T11:13:04.104Z,80.97
2022-12-11T11:15:31.173Z,80.34
2022-12-11T11:18:09.159Z,80.47
2022-12-11T11:20:42.730Z,80.94
2022-12-11T11:23:13.909Z,80.35
2022-12-11T11:25:50.350Z,79.03
2022-12-11T11:28:20.773Z,79.31
2022-12-11T11:31:00.768Z,80.66
2022-12-11T11:33:28.793Z,80.63
2022-12-11T11:35:58.355Z,80.18
2022-12-11T11:38:28.507Z,80.49
2022-12-11T11:41:05.620Z,80.11
2022-12-11T11:43:40.597Z,80.17
2022-12-11T11:46:13.992Z,80.20
2022-12-11T11:48:50.264Z,80.13
2022-12-11T11:51:24.464Z,80.25
2022-12-11T11:53:54.310Z,78.07
2022-12-11T11:56:23.403Z,77.68
2022-12-11T11:58:57.029Z,78.75
2022-12-11T12:01:24.025Z,79.28
2022-12-11T12:03:51.641Z,79.38
2022-12-11T12:06:34.178Z,79.56
2022-12-11T12:09:14.692Z,79.39
2022-12-11T12:11:49.990Z,79.77
2022-12-11T12:14:51.034Z,79.58
2022-12-11T12:17:22.203Z,79.51
2022-12-11T12:19:56.146Z,79.24
2022-12-11T12:22:40.680Z,79.77
2022-12-11T12:25:20.655Z,79.84
2022-12-11T12:27:56.432Z,79.78
2022-12-11T12:30:24.185Z,79.41
2022-12-11T12:33:12.633Z,79.09
2022-12-11T12:35:51.993Z,78.95
2022-12-11T12:38:30.352Z,78.15
2022-12-11T12:41:07.699Z,78.53
2022-12-11T12:44:00.923Z,78.62
2022-12-11T12:46:38.481Z,77.07
2022-12-11T12:49:10.631Z,78.40
2022-12-11T12:51:37.260Z,78.67
2022-12-11T12:54:12.477Z,78.38
2022-12-11T12:56:39.797Z,78.74
2022-12-11T12:59:17.859Z,78.52
2022-12-11T13:01:47.609Z,77.70
2022-12-11T13:04:55.567Z,78.13
2022-12-11T13:07:26.005Z,75.82
2022-12-11T13:10:00.135Z,75.89
2022-12-11T13:12:45.126Z,76.56
2022-12-11T13:15:31.905Z,77.20
2022-12-11T13:17:59.332Z,76.86
2022-12-11T13:20:27.424Z,77.03
2022-12-11T13:23:08.173Z,77.66
2022-12-11T13:25:49.367Z,77.53
2022-12-11T13:28:46.124Z,77.82
2022-12-11T13:31:30.310Z,77.96
2022-12-11T13:34:03.303Z,77.69
2022-12-11T13:36:33.701Z,77.50
2022-12-11T13:39:04.429Z,76.58
2022-12-11T13:41:36.070Z,76.89
2022-12-11T13:44:04.739Z,77.13
2022-12-11T13:46:35.605Z,76.13
2022-12-11T13:49:04.174Z,76.62
2022-12-11T13:51:32.557Z,76.61
2022-12-11T13:54:16.685Z,76.70
2022-12-11T13:56:56.198Z,76.26
2022-12-11T13:59:48.238Z,76.56
2022-12-11T14:02:21.067Z,76.53
2022-12-11T14:04:51.173Z,76.44
2022-12-11T14:07:25.933Z,76.49
2022-12-11T14:09:56.704Z,76.16
2022-12-11T14:12:24.725Z,76.82
2022-12-11T14:14:54.628Z,77.16
2022-12-11T14:17:25.641Z,77.25
2022-12-11T14:19:53.328Z,77.27
2022-12-11T14:22:22.236Z,77.69
2022-12-11T14:24:50.703Z,78.05
2022-12-11T14:27:18.510Z,78.07
2022-12-11T14:29:47.263Z,77.95
2022-12-11T14:32:18.937Z,78.38
2022-12-11T14:34:49.373Z,77.98
2022-12-11T14:37:20.101Z,78.29
2022-12-11T14:39:54.261Z,78.06
2022-12-11T14:42:24.553Z,78.35
2022-12-11T14:44:56.289Z,78.24
2022-12-11T14:47:27.123Z,78.54
2022-12-11T14:49:59.786Z,78.71
2022-12-11T14:52:31.024Z,77.89
2022-12-11T14:55:02.996Z,78.72
2022-12-11T14:57:30.569Z,79.02
2022-12-11T14:59:58.939Z,78.21
2022-12-11T15:02:29.638Z,79.37
2022-12-11T15:05:18.711Z,79.15
2022-12-11T15:07:55.468Z,80.07
2022-12-11T15:10:34.776Z,80.33
2022-12-11T15:13:02.652Z,80.45
2022-12-11T15:15:37.505Z,81.08
2022-12-11T15:18:12.498Z,81.27
2022-12-11T15:20:39.181Z,81.52
2022-12-11T15:23:07.744Z,81.99
2022-12-11T15:25:34.483Z,82.08
2022-12-11T15:28:01.494Z,82.31
2022-12-11T15:30:33.118Z,82.61
2022-12-11T15:33:05.465Z,82.45
2022-12-11T15:35:31.893Z,82.79
2022-12-11T15:37:59.279Z,83.07
2022-12-11T15:40:27.174Z,82.82
2022-12-11T15:42:54.488Z,82.88
2022-12-11T15:45:23.716Z,83.18
2022-12-11T15:47:52.537Z,83.23
2022-12-11T15:50:20.999Z,83.18
2022-12-11T15:52:48.985Z,83.12
2022-12-11T15:55:16.091Z,83.51
2022-12-11T15:57:47.259Z,83.55
2022-12-11T16:00:15.513Z,83.00
2022-12-11T16:02:42.146Z,82.78
2022-12-11T16:05:10.772Z,82.96
2022-12-11T16:07:37.862Z,82.96
2022-12-11T16:10:06.110Z,82.92
2022-12-11T16:12:32.706Z,83.19
2022-12-11T16:14:59.650Z,82.94
2022-12-11T16:17:26.162Z,83.07
2022-12-11T16:19:53.459Z,83.23
2022-12-11T16:22:21.358Z,83.23
2022-12-11T16:24:48.182Z,82.96
2022-12-11T16:27:19.930Z,83.31
2022-12-11T16:29:50.487Z,83.09
2022-12-11T16:32:17.431Z,83.64
2022-12-11T16:34:44.384Z,83.60
2022-12-11T16:37:11.396Z,83.86
2022-12-11T16:39:39.388Z,84.11
2022-12-11T16:42:06.833Z,83.62
2022-12-11T16:44:33.517Z,83.39
2022-12-11T16:47:00.756Z,82.51
2022-12-11T16:49:28.298Z,81.65
2022-12-11T16:51:58.014Z,81.43
2022-12-11T16:54:24.740Z,81.66
2022-12-11T16:56:52.640Z,82.53
2022-12-11T16:59:19.479Z,83.14
2022-12-11T17:01:46.067Z,83.45
2022-12-11T17:04:12.637Z,83.86
2022-12-11T17:06:39.181Z,84.19
2022-12-11T17:09:05.753Z,84.26
2022-12-11T17:11:32.268Z,83.59
2022-12-11T17:14:00.523Z,83.93
2022-12-11T17:16:28.800Z,83.55
2022-12-11T17:18:56.021Z,83.96
2022-12-11T17:21:23.318Z,83.46
2022-12-11T17:23:50.585Z,83.39
2022-12-11T17:26:17.700Z,83.71
2022-12-11T17:28:44.861Z,83.20
2022-12-11T17:31:17.774Z,82.96
2022-12-11T17:33:45.215Z,82.62
2022-12-11T17:36:14.248Z,82.75
2022-12-11T17:38:41.078Z,82.48
2022-12-11T17:41:08.000Z,81.97
2022-12-11T17:43:34.625Z,81.16
2022-12-11T17:46:01.818Z,81.57
2022-12-11T17:48:29.837Z,81.84
2022-12-11T17:50:56.732Z,81.97
2022-12-11T17:53:24.167Z,82.03
2022-12-11T17:55:52.129Z,81.94
2022-12-11T17:58:23.435Z,81.42
2022-12-11T18:00:54.682Z,82.04
2022-12-11T18:03:22.336Z,82.58
2022-12-11T18:05:53.683Z,82.64
2022-12-11T18:08:23.036Z,82.94
2022-12-11T18:10:50.270Z,82.82
2022-12-11T18:13:19.883Z,83.13
2022-12-11T18:16:01.535Z,83.62
2022-12-11T18:18:30.132Z,84.00
2022-12-11T18:20:58.760Z,84.11
2022-12-11T18:23:30.373Z,84.41
2022-12-11T18:25:58.957Z,84.16
2022-12-11T18:28:25.970Z,84.35
2022-12-11T18:30:56.612Z,84.32
2022-12-11T18:33:24.120Z,83.69
2022-12-11T18:35:51.895Z,83.75
2022-12-11T18:38:22.418Z,84.02
2022-12-11T18:40:50.876Z,83.80
2022-12-11T18:43:18.154Z,83.72
2022-12-11T18:45:46.145Z,83.88
2022-12-11T18:48:18.791Z,83.89
2022-12-11T18:50:46.436Z,83.60
2022-12-11T18:53:13.279Z,83.93
2022-12-11T18:55:46.088Z,84.13
2022-12-11T18:58:14.972Z,84.34
2022-12-11T19:00:42.589Z,84.15
2022-12-11T19:03:09.667Z,84.29
2022-12-11T19:05:36.497Z,84.63
2022-12-11T19:08:03.773Z,84.54
2022-12-11T19:10:30.323Z,85.04
2022-12-11T19:12:58.295Z,84.92
2022-12-11T19:15:24.857Z,84.76
2022-12-11T19:17:51.464Z,84.62
2022-12-11T19:20:47.449Z,84.48
2022-12-11T19:23:05.388Z,84.32
2022-12-11T19:25:32.500Z,84.14
2022-12-11T19:28:00.841Z,84.73
2022-12-11T19:30:27.360Z,84.83
2022-12-11T19:32:53.946Z,85.10
2022-12-11T19:35:20.454Z,84.72
2022-12-11T19:37:47.016Z,84.61
2022-12-11T19:40:13.548Z,84.75
2022-12-11T19:42:40.249Z,84.72
2022-12-11T19:45:09.033Z,85.37
2022-12-11T19:47:35.781Z,85.44
2022-12-11T19:50:02.889Z,85.07
2022-12-11T19:52:29.492Z,85.44
2022-12-11T19:55:01.388Z,85.54
2022-12-11T19:57:27.826Z,84.97
2022-12-11T19:59:57.409Z,85.69
2022-12-11T20:02:25.893Z,85.70
2022-12-11T20:04:52.456Z,86.02
2022-12-11T20:07:19.455Z,86.24
2022-12-11T20:09:46.029Z,85.76
2022-12-11T20:12:12.718Z,85.78
2022-12-11T20:14:39.273Z,86.11
2022-12-11T20:17:14.613Z,86.04
2022-12-11T20:19:43.207Z,86.06
2022-12-11T20:22:10.445Z,85.90
2022-12-11T20:24:37.464Z,85.16
2022-12-11T20:27:04.244Z,85.31
2022-12-11T20:29:31.010Z,85.74
2022-12-11T20:31:57.571Z,86.21
2022-12-11T20:34:24.150Z,86.03
2022-12-11T20:36:52.846Z,85.80
2022-12-11T20:39:19.484Z,85.94
2022-12-11T20:41:46.081Z,85.94
2022-12-11T20:44:12.713Z,86.10
2022-12-11T20:46:39.227Z,86.20
2022-12-11T20:49:05.810Z,86.24
2022-12-11T20:51:32.396Z,86.32
2022-12-11T20:54:00.462Z,86.10
2022-12-11T20:56:28.677Z,85.97
2022-12-11T20:58:55.858Z,86.36
2022-12-11T21:01:24.404Z,86.12
2022-12-11T21:03:51.696Z,86.45
2022-12-11T21:06:19.845Z,86.28
2022-12-11T21:08:46.474Z,86.00
2022-12-11T21:11:14.492Z,86.41
2022-12-11T21:13:41.472Z,85.73
2022-12-11T21:16:09.300Z,85.64
2022-12-11T21:18:35.958Z,85.91
2022-12-11T21:21:02.813Z,86.00
2022-12-11T21:23:29.339Z,85.54
2022-12-11T21:25:55.864Z,86.26
2022-12-11T21:28:23.884Z,86.13
2022-12-11T21:30:50.653Z,86.03
2022-12-11T21:33:17.272Z,86.17
2022-12-11T21:35:43.778Z,86.32
2022-12-11T21:38:10.445Z,86.56
2022-12-11T21:40:36.968Z,86.18
2022-12-11T21:43:03.672Z,86.32
2022-12-11T21:46:00.251Z,86.64
2022-12-11T21:48:22.025Z,87.16
2022-12-11T21:50:48.515Z,87.37
2022-12-11T21:53:15.065Z,86.82
2022-12-11T21:55:42.054Z,86.77
2022-12-11T21:58:09.089Z,86.76
2022-12-11T22:00:39.229Z,87.37
2022-12-11T22:03:05.951Z,87.51
2022-12-11T22:05:32.469Z,87.07
2022-12-11T22:07:59.085Z,87.42
2022-12-11T22:10:25.744Z,87.72
2022-12-11T22:12:53.711Z,87.34
2022-12-11T22:15:20.357Z,87.97
2022-12-11T22:17:48.465Z,87.43
2022-12-11T22:20:14.952Z,87.70
2022-12-11T22:22:42.024Z,88.19
2022-12-11T22:25:09.141Z,87.82
2022-12-11T22:27:35.897Z,88.14
2022-12-11T22:30:02.618Z,87.78
2022-12-11T22:32:29.233Z,88.15
2022-12-11T22:34:59.798Z,87.70
2022-12-11T22:37:26.405Z,88.33
2022-12-11T22:39:53.052Z,87.64
2022-12-11T22:42:19.885Z,87.50
2022-12-11T22:44:46.356Z,87.80
2022-12-11T22:47:12.923Z,88.36
2022-12-11T22:49:39.407Z,88.03
2022-12-11T22:52:07.343Z,88.42
2022-12-11T22:54:34.067Z,88.41
2022-12-11T22:57:00.632Z,88.22
2022-12-11T22:59:27.128Z,88.11
2022-12-11T23:01:53.677Z,88.14
2022-12-11T23:04:20.176Z,88.23
2022-12-11T23:06:47.960Z,87.91
2022-12-11T23:09:15.834Z,88.15
2022-12-11T23:11:42.726Z,87.85
2022-12-11T23:14:14.691Z,88.17
2022-12-11T23:16:41.224Z,88.56
2022-12-11T23:19:08.034Z,88.64
2022-12-11T23:21:35.304Z,88.36
2022-12-11T23:24:02.142Z,88.38
2022-12-11T23:26:30.895Z,88.31
2022-12-11T23:28:58.620Z,88.22
2022-12-11T23:31:26.608Z,88.32
2022-12-11T23:33:53.197Z,88.38
2022-12-11T23:36:19.973Z,88.26
2022-12-11T23:38:52.557Z,88.29
2022-12-11T23:41:21.404Z,88.48
2022-12-11T23:43:49.281Z,88.68
2022-12-11T23:46:19.446Z,88.64
2022-12-11T23:48:46.408Z,88.79
2022-12-11T23:51:15.137Z,88.52
2022-12-11T23:53:42.794Z,89.01
2022-12-11T23:56:12.156Z,88.56
2022-12-11T23:58:40.168Z,88.92
